Salt Lake City, UT

6:21 AM MDT on September 02, 2014 (GMT -0600)
South Salt Lake | Change Station
CLOSE
Current Station
Personal Weather Station
Location: Salt Lake City, UT
Elevation: 4273 ft
Nearby Weather Stations

Elev 4273 ft 40.72 °N, 111.88 °W | Updated 51 minutes ago

Clear
Clear
52.3 °F
Feels Like 52.3 °F
N
0.0
Wind Variable Wind from South
Gusts 0.0 mph

Today
High -- | Low -- °F
--% Chance of Precip.
Yesterday
High -- | Low -- °F
Precip. -- in
6:55 AM 7:58 PM
Waxing Crescent, 51% visible
Pressure 29.88 in
Visibility 10.0 miles
Clouds Clear
Dew Point 43 °F
Humidity 70%
Rainfall 0.00 in
Snow Depth 0 in , 0 in , 0 in
UV 0 out of 12
Pollen 7.50 out of 12
Ozone Good
PM2.5 Good
Flu Activity Not available.
METAR KSLC 021153Z 13003KT 10SM CLR 14/05 A3001 RMK AO2 SLP118 T01440050 10183 20139 55001

More Conditions Fewer Conditions

Pressure 29.88 in
Visibility 10.0 miles
Clouds Clear
Dew Point 43 °F
Humidity 70%
Rainfall 0.00 in
Snow Depth 0 in , 0 in , 0 in
UV 0 out of 12
Pollen 7.50 out of 12
Ozone Good
PM2.5 Good
Flu Activity Not available.
METAR KSLC 021153Z 13003KT 10SM CLR 14/05 A3001 RMK AO2 SLP118 T01440050 10183 20139 55001

More Conditions Fewer Conditions

10-Day Weather Forecast

Almanac

Astronomy

Sep. 02, 2014 Rise Set
Actual Time 6:55 AM MDT 7:58 PM MDT
Civil Twilight 6:27 AM MDT 8:26 PM MDT
Nautical Twilight 5:54 AM MDT 8:59 PM MDT
Astronomical Twilight 5:19 AM MDT 9:34 PM MDT
Moon 2:46 PM MDT 12:01 AM MDT
Length of Visible Light 13h 58m
Length of Day
13h 02m
Tomorrow will be 2m 36s shorter.
Waxing Crescent, 51% of the Moon is Illuminated
Today
Waxing Crescent
Sep 8
Full
Sep 15
Last Quarter
Sep 24
New
Oct 1
First Quarter

Today's Extremes

State Highs State Lows

Community

WunderPhotos

Upload Photos

1,749,639 photos uploaded!

WunderBlogs® & News

By Dr. Jeff Masters
Director of Meteorology, Weather Underground
By Kari Strenfel
Meteorologist, Weather Underground
By Christopher C. Burt
Weather Historian, Weather Underground
September 2, 2014
September 2, 2014
September 2, 2014

Nearby

Air Quality

  Air Quality AQ Index Pollutant
Yesterday Good
OZONE
Yesterday Good
PM2.5
Current Good
OZONE
Current Good
PM2.5
Tuesday Moderate
OZONE
Wednesday Moderate
OZONE

Snow Depth

Station Depth Elevation
Louis Meadow 0 in 6700 ft
Hardscrabble 0 in 7250 ft
Parrish Creek 0 in 7740 ft
Mill-d North 0 in 8960 ft
Snowbird 0 in 9640 ft

Earthquake Activity

City Distance Mag. Time & Date
No recent earthquake activity has been reported nearby.
Minimum magnitude displayed is 2.5.

Coastal Water Temperatures

Place Temperature
No Stations Reporting

Nearby Weather Stations